Esther, Alberta

Past 24 Hour Conditions

Date / Time
(MDT)
Conditions Temp
(°F)
Humidity
(%)
Dew Point
(°F)
Wind
(mph)
Pressure
(inches)
Visibility
(miles)
21 October 2014
1:00 N/A 51 45 30 SSW 8 29.6 N/A
00:00 N/A 54 39 29 S 11 29.6 N/A
20 October 2014
23:00 N/A 55 37 29 SSE 14 29.6 N/A
22:00 N/A 53 40 30 SE 12 29.6 N/A
21:00 N/A 57 34 29 SSE 12 29.6 N/A
20:00 N/A 62 28 29 S 15 29.6 N/A
19:00 N/A 58 39 33 SSE 11 29.6 N/A
18:00 N/A 60 36 33 ESE 8 29.6 N/A
17:00 N/A 73 21 31 SSW 7 29.6 N/A
16:00 N/A 74   20 30 S 15 29.6 N/A
15:00 N/A 74   20 30 S 16 29.6 N/A
14:00 N/A 74   20 31 SSW 9 29.6 N/A
13:00 N/A 72 23 32 SSW 12 29.7 N/A
12:00 N/A 69 27 33 SSW 12 29.7 N/A
11:00 N/A 63 34 34 SSW 12 29.7 N/A
10:00 N/A 55 46 34 S 19 29.7 N/A
9:00 N/A 51 52 34 S 18 29.7 N/A
8:00 N/A 47 61 34 S 17 gust 23 29.7 N/A
7:00 N/A 46   63 35 SSE 13 29.7 N/A
6:00 N/A 48 62 35 SSE 14 29.7 N/A
5:00 N/A 48 64 36 SSE 15 29.7 N/A
4:00 N/A 51 58 37 SSE 18 29.7 N/A
3:00 N/A 53 55 37 SSE 18 29.7 N/A
2:00 N/A 50 58 37 SE 14 29.7 N/A
1:00 N/A 50 58 36 SE 14 gust 20 29.7 N/A
N/A Not available
↑ Highest temperature
↓ Lowest temperature

If you require additional historical weather information, please visit Climate Data Online.

Date modified: